Dilligaf — WDF3436 — position and weather

sailwx.info

Track history (hours):
 
Tides and Currents Weather Stations Pressure Air Temp Water Temp Dewpoint Dewpoint Depression Visibility Wind Speed Wind Dir Waves Ship Positions

Dilligaf

Owner: teasdale, william m, bellevue, WA. More information available from US FCC via Universal Licensing System and Coast Guard Vessel Documentation Center.

Last reported at 2017-Sep-23 23:58 UTC. Time now 2017-Oct-20 05:25 UTC.
Position N 47°38' W 122°24'.
Warning: this ship's position is 26 days out of date.

Length 14 m.

Type: Sailing vessel. MMSI: 367439860.

Date/timePositionNaut miles runAvg speedWind from/ knotsBaromVisibWave heightAir tempDewpointWater temp
2017-Sep-23 23:58N 47°38' W 122°24'0 0.0
2017-Sep-23 23:30N 47°38' W 122°24'2 4.9
2017-Sep-23 23:00N 47°39' W 122°27'1 2.3
2017-Sep-23 22:31N 47°40' W 122°27'0 0.9
2017-Sep-23 22:01N 47°40' W 122°27'0 0.8
2017-Sep-23 21:29N 47°40' W 122°27'0 0.2
2017-Sep-23 21:00N 47°40' W 122°27'2 3.3
2017-Sep-23 20:29N 47°39' W 122°26'2 3.9
2017-Sep-23 20:00N 47°38' W 122°24'  
2017-Sep-19 19:19N 47°38' W 122°24'  
2017-Sep-16 23:32N 47°38' W 122°24'0 0.0
2017-Sep-16 23:29N 47°38' W 122°24'0 0.2
2017-Sep-16 22:59N 47°38' W 122°24'1 1.3
2017-Sep-16 22:30N 47°38' W 122°25'2 4.7
2017-Sep-16 22:00N 47°40' W 122°27'0 0.7
2017-Sep-16 21:30N 47°39' W 122°27'1 1.6
2017-Sep-16 21:00N 47°40' W 122°27'1 1.6
2017-Sep-16 20:30N 47°39' W 122°27'0 0.5
2017-Sep-16 20:00N 47°40' W 122°27'1 1.5
2017-Sep-16 19:30N 47°39' W 122°27'2 3.2
2017-Sep-16 19:00N 47°37' W 122°28'3 7.0
2017-Sep-16 18:30N 47°34' W 122°29'1 0.1
2017-Sep-16 01:14N 47°33' W 122°29'0 0.0
2017-Sep-16 00:59N 47°33' W 122°29'0 0.0
2017-Sep-16 00:29N 47°33' W 122°29'3 5.6
2017-Sep-16 00:00N 47°35' W 122°26'4 7.2
2017-Sep-15 23:30N 47°38' W 122°23'0 0.8
2017-Sep-15 23:00N 47°38' W 122°24'3 6.3
2017-Sep-15 22:30N 47°40' W 122°27'0 0.8
2017-Sep-15 22:00N 47°40' W 122°27'1 2.1
2017-Sep-15 21:30N 47°39' W 122°27'3 5.1
2017-Sep-15 21:00N 47°37' W 122°26'2 3.8
2017-Sep-15 20:30N 47°35' W 122°24'2 4.7
2017-Sep-15 20:01N 47°36' W 122°21'3 5.8
2017-Sep-15 19:30N 47°38' W 122°24'0 0.2
2017-Sep-15 19:00N 47°38' W 122°24'  
Track history (hours):
 
Tides and Currents Weather Stations Pressure Air Temp Water Temp Dewpoint Dewpoint Depression Visibility Wind Speed Wind Dir Waves Ship Positions

Dilligaf

Owner: teasdale, william m, bellevue, WA. More information available from US FCC via Universal Licensing System and Coast Guard Vessel Documentation Center.

Last reported at 2017-Sep-23 23:58 UTC. Time now 2017-Oct-20 05:25 UTC.
Position N 47°38' W 122°24'.
Warning: this ship's position is 26 days out of date.

Length 14 m.

Type: Sailing vessel. MMSI: 367439860.

Date/timePositionNaut miles runAvg speedWind from/ knotsBaromVisibWave heightAir tempDewpointWater temp
2017-Sep-23 23:58N 47°38' W 122°24'0 0.0
2017-Sep-23 23:30N 47°38' W 122°24'2 4.9
2017-Sep-23 23:00N 47°39' W 122°27'1 2.3
2017-Sep-23 22:31N 47°40' W 122°27'0 0.9
2017-Sep-23 22:01N 47°40' W 122°27'0 0.8
2017-Sep-23 21:29N 47°40' W 122°27'0 0.2
2017-Sep-23 21:00N 47°40' W 122°27'2 3.3
2017-Sep-23 20:29N 47°39' W 122°26'2 3.9
2017-Sep-23 20:00N 47°38' W 122°24'  
2017-Sep-19 19:19N 47°38' W 122°24'  
2017-Sep-16 23:32N 47°38' W 122°24'0 0.0
2017-Sep-16 23:29N 47°38' W 122°24'0 0.2
2017-Sep-16 22:59N 47°38' W 122°24'1 1.3
2017-Sep-16 22:30N 47°38' W 122°25'2 4.7
2017-Sep-16 22:00N 47°40' W 122°27'0 0.7
2017-Sep-16 21:30N 47°39' W 122°27'1 1.6
2017-Sep-16 21:00N 47°40' W 122°27'1 1.6
2017-Sep-16 20:30N 47°39' W 122°27'0 0.5
2017-Sep-16 20:00N 47°40' W 122°27'1 1.5
2017-Sep-16 19:30N 47°39' W 122°27'2 3.2
2017-Sep-16 19:00N 47°37' W 122°28'3 7.0
2017-Sep-16 18:30N 47°34' W 122°29'1 0.1
2017-Sep-16 01:14N 47°33' W 122°29'0 0.0
2017-Sep-16 00:59N 47°33' W 122°29'0 0.0
2017-Sep-16 00:29N 47°33' W 122°29'3 5.6
2017-Sep-16 00:00N 47°35' W 122°26'4 7.2
2017-Sep-15 23:30N 47°38' W 122°23'0 0.8
2017-Sep-15 23:00N 47°38' W 122°24'3 6.3
2017-Sep-15 22:30N 47°40' W 122°27'0 0.8
2017-Sep-15 22:00N 47°40' W 122°27'1 2.1
2017-Sep-15 21:30N 47°39' W 122°27'3 5.1
2017-Sep-15 21:00N 47°37' W 122°26'2 3.8
2017-Sep-15 20:30N 47°35' W 122°24'2 4.7
2017-Sep-15 20:01N 47°36' W 122°21'3 5.8
2017-Sep-15 19:30N 47°38' W 122°24'0 0.2
2017-Sep-15 19:00N 47°38' W 122°24'  

Dump ship's entire track history